Time;durP1;ratioP1;P1;durP2;ratioP2;P2;SDS_P1;SDS_P2;PMS_P1;PMS_P2;Temp;Humidity;BMP_temperature;BMP_pressure;BME280_temperature;BME280_humidity;BME280_pressure;Samples;Min_cycle;Max_cycle;Signal;HPM_P1;HPM_P2
2021/09/25 00:00:41;;;;;;;27.60;18.38;;;;;;;-144.51;100.00;69251.94;5015354;28;20045;-61
2021/09/25 00:03:26;;;;;;;29.00;17.92;;;;;;;-144.51;100.00;69251.94;5020017;28;20046;-61
2021/09/25 00:06:11;;;;;;;28.95;17.75;;;;;;;-144.51;100.00;69251.94;5021658;28;20041;-60
2021/09/25 00:08:57;;;;;;;29.13;18.48;;;;;;;-144.51;100.00;69251.94;5035595;28;20420;-60
2021/09/25 00:11:42;;;;;;;28.17;18.15;;;;;;;-144.51;100.00;69251.94;5039194;28;20041;-60
2021/09/25 00:14:27;;;;;;;;;;;;;;;-144.51;100.00;69251.94;5037911;28;20041;-61
2021/09/25 00:17:19;;;;;;;28.13;17.95;;;;;;;-144.51;100.00;69251.94;5040261;28;19913;-61
2021/09/25 00:33:16;;;;;;;21.55;16.55;;;;;;;-144.51;100.00;69251.94;5053282;28;20033;-61
2021/09/25 00:36:01;;;;;;;25.08;18.42;;;;;;;-144.51;100.00;69251.94;5054531;28;20045;-61
2021/09/25 00:38:46;;;;;;;27.52;17.95;;;;;;;-144.51;100.00;69251.94;5037980;28;20041;-61
2021/09/25 00:41:31;;;;;;;;;;;;;;;-144.51;100.00;69251.94;5039225;28;20045;-61
2021/09/25 00:44:15;;;;;;;26.90;18.13;;;;;;;-144.51;100.00;69251.94;5037156;28;19913;-61
2021/09/25 00:47:00;;;;;;;24.83;18.08;;;;;;;-144.51;100.00;69251.94;5035464;28;20041;-61
2021/09/25 00:49:45;;;;;;;32.78;19.58;;;;;;;-144.51;100.00;69251.94;5053593;28;20037;-61
2021/09/25 00:52:30;;;;;;;;;;;;;;;-144.51;100.00;69251.94;5057149;28;20048;-61
2021/09/25 00:55:16;;;;;;;;;;;;;;;-144.51;100.00;69251.94;5056060;28;20284;-61
2021/09/25 00:58:04;;;;;;;24.10;17.80;;;;;;;-144.51;100.00;69251.94;5057414;28;19912;-61
2021/09/25 01:00:49;;;;;;;26.05;17.95;;;;;;;-144.51;100.00;69251.94;5056743;28;20045;-61
2021/09/25 01:03:34;;;;;;;26.63;19.80;;;;;;;-144.51;100.00;69251.94;5054984;28;20049;-61
2021/09/25 01:06:20;;;;;;;27.02;18.55;;;;;;;-144.51;100.00;69251.94;5058876;28;20041;-62
2021/09/25 01:09:06;;;;;;;26.52;19.48;;;;;;;-144.51;100.00;69251.94;5044701;28;20061;-60
2021/09/25 01:11:50;;;;;;;25.67;16.70;;;;;;;-144.51;100.00;69251.94;5035329;28;20037;-60
2021/09/25 01:14:36;;;;;;;27.17;18.95;;;;;;;-144.51;100.00;69251.94;5038948;28;20048;-60
2021/09/25 01:17:21;;;;;;;25.00;18.08;;;;;;;-144.51;100.00;69251.94;5036979;28;20397;-61
2021/09/25 01:20:08;;;;;;;26.30;20.02;;;;;;;-144.51;100.00;69251.94;5055705;28;20112;-60
2021/09/25 01:22:52;;;;;;;27.95;19.98;;;;;;;-144.51;100.00;69251.94;5058950;28;20513;-60
2021/09/25 01:25:37;;;;;;;;;;;;;;;-144.51;100.00;69251.94;5057937;28;20045;-60
2021/09/25 01:28:22;;;;;;;31.23;19.55;;;;;;;-144.51;100.00;69251.94;5055455;28;19912;-60
2021/09/25 01:31:11;;;;;;;28.30;19.42;;;;;;;-144.51;100.00;69251.94;5058994;28;20037;-60
2021/09/25 01:33:58;;;;;;;25.02;19.55;;;;;;;-144.51;100.00;69251.94;5056932;28;20044;-60
2021/09/25 01:36:43;;;;;;;28.10;19.83;;;;;;;-144.51;100.00;69251.94;5055203;28;20040;-60
2021/09/25 01:39:28;;;;;;;28.02;20.45;;;;;;;-144.51;100.00;69251.94;5051479;28;20041;-60
2021/09/25 01:42:14;;;;;;;30.73;20.02;;;;;;;-144.51;100.00;69251.94;5037165;28;20061;-60
2021/09/25 01:44:59;;;;;;;32.35;20.13;;;;;;;-144.51;100.00;69251.94;5035102;28;20037;-60
2021/09/25 01:47:44;;;;;;;38.38;20.48;;;;;;;-144.51;100.00;69251.94;5033165;28;20501;-60
2021/09/25 01:50:29;;;;;;;;;;;;;;;-144.51;100.00;69251.94;5046854;28;20028;-61
2021/09/25 01:53:13;;;;;;;28.70;19.17;;;;;;;-144.51;100.00;69251.94;5055256;28;19912;-60
2021/09/25 01:56:09;;;;;;;27.80;19.83;;;;;;;-144.51;100.00;69251.94;5053297;28;20041;-63
2021/09/25 01:58:54;;;;;;;29.20;20.05;;;;;;;-144.51;100.00;69251.94;5054153;28;20041;-61
2021/09/25 02:01:40;;;;;;;28.90;19.27;;;;;;;-144.51;100.00;69251.94;5054375;28;20037;-61
2021/09/25 02:04:25;;;;;;;29.35;19.58;;;;;;;-144.51;100.00;69251.94;5052860;28;20045;-61
2021/09/25 02:07:09;;;;;;;32.00;18.27;;;;;;;-144.51;100.00;69251.94;5055322;28;20034;-61
2021/09/25 02:09:54;;;;;;;;;;;;;;;-144.51;100.00;69251.94;5035508;28;20045;-61
2021/09/25 02:12:39;;;;;;;27.70;17.23;;;;;;;-144.51;100.00;69251.94;5032530;28;20368;-61
2021/09/25 02:15:24;;;;;;;26.27;18.55;;;;;;;-144.51;100.00;69251.94;5036819;28;20037;-60
2021/09/25 02:18:09;;;;;;;31.73;19.33;;;;;;;-144.51;100.00;69251.94;5045134;28;20045;-61
2021/09/25 02:20:55;;;;;;;28.52;19.15;;;;;;;-144.51;100.00;69251.94;5052466;28;20045;-60
2021/09/25 02:23:40;;;;;;;31.25;18.60;;;;;;;-144.51;100.00;69251.94;5057020;28;20032;-61
2021/09/25 02:26:24;;;;;;;;;;;;;;;-144.51;100.00;69251.94;5055463;28;20045;-61
2021/09/25 02:29:10;;;;;;;26.00;17.27;;;;;;;-144.51;100.00;69251.94;5037308;28;19913;-61
2021/09/25 02:31:55;;;;;;;26.25;18.80;;;;;;;-144.51;100.00;69251.94;5036769;28;20041;-61
2021/09/25 02:34:40;;;;;;;;;;;;;;;-144.51;100.00;69251.94;5035702;28;20045;-60
2021/09/25 02:37:25;;;;;;;26.63;17.80;;;;;;;-144.51;100.00;69251.94;5033285;28;19913;-61
2021/09/25 02:40:12;;;;;;;30.85;18.15;;;;;;;-144.51;100.00;69251.94;5038827;28;20045;-62
2021/09/25 02:42:57;;;;;;;30.98;19.02;;;;;;;-144.51;100.00;69251.94;5034842;28;20075;-61
2021/09/25 02:45:42;;;;;;;33.10;18.48;;;;;;;-144.51;100.00;69251.94;5033461;28;20045;-61
2021/09/25 02:48:27;;;;;;;;;;;;;;;-144.51;100.00;69251.94;5039493;28;20049;-61
2021/09/25 02:51:12;;;;;;;26.85;17.30;;;;;;;-144.51;100.00;69251.94;5055170;28;19913;-61
2021/09/25 02:53:57;;;;;;;25.48;18.65;;;;;;;-144.51;100.00;69251.94;5053366;28;20045;-61
2021/09/25 02:56:42;;;;;;;33.33;19.00;;;;;;;-144.51;100.00;69251.94;5057073;28;20037;-61
2021/09/25 02:59:27;;;;;;;30.23;18.77;;;;;;;-144.51;100.00;69251.94;5050474;28;20053;-62
2021/09/25 03:02:12;;;;;;;;;;;;;;;-144.51;100.00;69251.94;5051892;28;20044;-60
2021/09/25 03:04:56;;;;;;;31.83;19.20;;;;;;;-144.51;100.00;69251.94;5057252;28;19916;-60
2021/09/25 03:07:43;;;;;;;27.13;19.27;;;;;;;-144.51;100.00;69251.94;5055520;28;20041;-62
2021/09/25 03:10:29;;;;;;;26.30;18.10;;;;;;;-144.51;100.00;69251.94;5052546;28;20040;-61
2021/09/25 03:13:14;;;;;;;33.75;18.80;;;;;;;-144.51;100.00;69251.94;5051620;28;20044;-61
2021/09/25 03:16:00;;;;;;;27.50;18.60;;;;;;;-144.51;100.00;69251.94;5055522;28;20045;-60
2021/09/25 03:18:45;;;;;;;27.33;18.80;;;;;;;-144.51;100.00;69251.94;5053569;28;20049;-60
2021/09/25 03:21:30;;;;;;;;;;;;;;;-144.51;100.00;69251.94;5052007;28;20053;-60
2021/09/25 03:24:15;;;;;;;24.17;17.85;;;;;;;-144.51;100.00;69251.94;5055463;28;19913;-60
2021/09/25 03:26:59;;;;;;;;;;;;;;;-144.51;100.00;69251.94;5054341;28;20500;-60
2021/09/25 03:29:44;;;;;;;27.90;18.13;;;;;;;-144.51;100.00;69251.94;5048285;28;19912;-60
2021/09/25 03:32:29;;;;;;;26.08;18.30;;;;;;;-144.51;100.00;69251.94;5035713;28;20049;-60
2021/09/25 03:35:15;;;;;;;25.58;17.67;;;;;;;-144.51;100.00;69251.94;5034416;28;20037;-60
2021/09/25 03:38:00;;;;;;;26.40;18.25;;;;;;;-144.51;100.00;69251.94;5032070;28;20049;-61
2021/09/25 03:40:46;;;;;;;29.05;18.58;;;;;;;-144.51;100.00;69251.94;5044626;28;20041;-60
2021/09/25 03:43:31;;;;;;;25.58;18.08;;;;;;;-144.51;100.00;69251.94;5054000;28;20401;-60
2021/09/25 03:46:19;;;;;;;47.70;19.80;;;;;;;-144.51;100.00;69251.94;5051952;28;20401;-60
2021/09/25 03:49:04;;;;;;;25.92;17.92;;;;;;;-144.51;100.00;69251.94;5052775;28;20041;-60
2021/09/25 03:51:49;;;;;;;;;;;;;;;-144.51;100.00;69251.94;5039265;28;20041;-61
2021/09/25 03:54:34;;;;;;;23.15;16.90;;;;;;;-144.51;100.00;69251.94;5032245;28;19913;-61
2021/09/25 03:57:20;;;;;;;29.02;18.30;;;;;;;-144.51;100.00;69251.94;5035859;28;20037;-60
2021/09/25 04:00:05;;;;;;;;;;;;;;;-144.51;100.00;69251.94;5034617;28;20045;-60
2021/09/25 04:02:51;;;;;;;29.73;17.55;;;;;;;-144.51;100.00;69251.94;5052060;28;19912;-61
2021/09/25 04:05:37;;;;;;;30.15;19.25;;;;;;;-144.51;100.00;69251.94;5056159;28;20032;-61
2021/09/25 04:08:21;;;;;;;27.17;19.85;;;;;;;-144.51;100.00;69251.94;5054840;28;20041;-65
2021/09/25 04:11:06;;;;;;;;;;;;;;;-144.51;100.00;69251.94;5055760;28;20036;-65
2021/09/25 04:13:51;;;;;;;29.10;20.60;;;;;;;-144.51;100.00;69251.94;5053456;28;19912;-64
2021/09/25 04:16:36;;;;;;;27.75;19.63;;;;;;;-144.51;100.00;69251.94;5062380;28;20049;-63
2021/09/25 04:19:21;;;;;;;;;;;;;;;-144.51;100.00;69251.94;5057389;28;20040;-63
2021/09/25 04:22:05;;;;;;;46.17;21.63;;;;;;;-144.51;100.00;69251.94;5062782;28;19916;-63
2021/09/25 04:24:50;;;;;;;39.88;20.63;;;;;;;-144.51;100.00;69251.94;5062243;28;20041;-64
2021/09/25 04:27:35;;;;;;;;;;;;;;;-144.51;100.00;69251.94;5057212;28;20045;-64
2021/09/25 04:30:20;;;;;;;34.45;19.75;;;;;;;-144.51;100.00;69251.94;5062133;28;19912;-64
2021/09/25 04:33:06;;;;;;;;;;;;;;;-144.51;100.00;69251.94;5058684;28;20041;-64
2021/09/25 04:35:50;;;;;;;;;;;;;;;-144.51;100.00;69251.94;5057420;28;19912;-64
2021/09/25 04:38:35;;;;;;;52.22;22.48;;;;;;;-144.51;100.00;69251.94;5055304;28;19916;-64
2021/09/25 04:41:20;;;;;;;38.30;23.88;;;;;;;-144.51;100.00;69251.94;5058831;28;20041;-65
2021/09/25 04:44:06;;;;;;;28.67;18.50;;;;;;;-144.51;100.00;69251.94;5056202;28;20408;-64
2021/09/25 04:46:51;;;;;;;39.30;25.42;;;;;;;-144.51;100.00;69251.94;5053612;28;20037;-64
2021/09/25 04:49:35;;;;;;;;;;;;;;;-144.51;100.00;69251.94;5062179;28;20041;-64
2021/09/25 04:52:21;;;;;;;38.75;24.38;;;;;;;-144.51;100.00;69251.94;5056966;28;19913;-64
2021/09/25 04:55:06;;;;;;;;;;;;;;;-144.51;100.00;69251.94;5061348;28;20045;-64
2021/09/25 04:57:50;;;;;;;39.20;24.85;;;;;;;-144.51;100.00;69251.94;5059066;28;19913;-64
2021/09/25 05:00:35;;;;;;;36.20;25.98;;;;;;;-144.51;100.00;69251.94;5056933;28;20041;-64
2021/09/25 05:03:20;;;;;;;43.17;27.88;;;;;;;-144.51;100.00;69251.94;5054472;28;20041;-64
2021/09/25 05:06:05;;;;;;;;;;;;;;;-144.51;100.00;69251.94;5059506;28;20041;-64
2021/09/25 05:08:49;;;;;;;38.55;26.00;;;;;;;-144.51;100.00;69251.94;5056414;28;19913;-64
2021/09/25 05:11:34;;;;;;;;;;;;;;;-144.51;100.00;69251.94;5055595;28;20041;-65
2021/09/25 05:14:19;;;;;;;42.85;25.70;;;;;;;-144.51;100.00;69251.94;5058930;28;20319;-65
2021/09/25 05:17:04;;;;;;;;;;;;;;;-144.51;100.00;69251.94;5058158;28;20049;-64
2021/09/25 05:19:48;;;;;;;41.35;26.60;;;;;;;-144.51;100.00;69251.94;5055632;28;19917;-64
2021/09/25 05:22:34;;;;;;;39.55;26.40;;;;;;;-144.51;100.00;69251.94;5057515;28;20504;-64
2021/09/25 05:25:19;;;;;;;39.45;26.60;;;;;;;-144.51;100.00;69251.94;5054073;28;20045;-64
2021/09/25 05:28:04;;;;;;;48.08;25.80;;;;;;;-144.51;100.00;69251.94;5055924;28;20045;-63
2021/09/25 05:30:48;;;;;;;;;;;;;;;-144.51;100.00;69251.94;5061062;28;20045;-63
2021/09/25 05:33:34;;;;;;;44.20;26.55;;;;;;;-144.51;100.00;69251.94;5058563;28;19912;-64
2021/09/25 05:36:18;;;;;;;;;;;;;;;-144.51;100.00;69251.94;5056592;28;20489;-64
2021/09/25 05:39:05;;;;;;;42.25;26.92;;;;;;;-144.51;100.00;69251.94;5055068;28;19913;-66
2021/09/25 05:41:50;;;;;;;47.13;27.30;;;;;;;-144.51;100.00;69251.94;5056120;28;20041;-65
2021/09/25 05:44:34;;;;;;;;;;;;;;;-144.51;100.00;69251.94;5061680;28;20037;-64
2021/09/25 05:47:25;;;;;;;48.38;26.08;;;;;;;-144.51;100.00;69251.94;5062115;28;19913;-64
2021/09/25 05:50:10;;;;;;;37.25;24.48;;;;;;;-144.51;100.00;69251.94;5065180;28;20045;-64
2021/09/25 05:52:55;;;;;;;40.10;26.75;;;;;;;-144.51;100.00;69251.94;5068320;28;20037;-64
2021/09/25 05:55:40;;;;;;;43.25;26.80;;;;;;;-144.51;100.00;69251.94;5055247;28;20033;-64
2021/09/25 05:58:26;;;;;;;42.97;26.35;;;;;;;-144.51;100.00;69251.94;5056536;28;20040;-64
2021/09/25 06:01:11;;;;;;;40.05;27.10;;;;;;;-144.51;100.00;69251.94;5056507;28;20488;-64
2021/09/25 06:03:56;;;;;;;;;;;;;;;-144.51;100.00;69251.94;5063081;28;20045;-64
2021/09/25 06:06:40;;;;;;;46.42;28.42;;;;;;;-144.51;100.00;69251.94;5057070;28;19912;-64
2021/09/25 06:09:25;;;;;;;;;;;;;;;-144.51;100.00;69251.94;5054333;28;20057;-64
2021/09/25 06:12:10;;;;;;;40.47;26.38;;;;;;;-144.51;100.00;69251.94;5059023;28;19913;-63
2021/09/25 06:14:55;;;;;;;38.55;26.75;;;;;;;-144.51;100.00;69251.94;5057907;28;20044;-63
2021/09/25 06:17:42;;;;;;;43.25;25.67;;;;;;;-144.51;100.00;69251.94;5057473;28;20036;-63
2021/09/25 06:20:26;;;;;;;28.10;19.45;;;;;;;-144.51;100.00;69251.94;5054478;28;20045;-63
2021/09/25 06:23:11;;;;;;;28.23;17.27;;;;;;;-144.51;100.00;69251.94;5059939;28;20045;-63
2021/09/25 06:25:56;;;;;;;30.35;18.25;;;;;;;-144.51;100.00;69251.94;5045043;28;20049;-63
2021/09/25 06:28:41;;;;;;;;;;;;;;;-144.51;100.00;69251.94;5075864;28;20049;-63
2021/09/25 06:31:26;;;;;;;32.08;22.95;;;;;;;-144.51;100.00;69251.94;5073077;28;19912;-63
2021/09/25 06:34:10;;;;;;;;;;;;;;;-144.51;100.00;69251.94;5071697;28;20404;-66
2021/09/25 06:36:55;;;;;;;34.08;22.50;;;;;;;-144.51;100.00;69251.94;5063993;28;19917;-63
2021/09/25 06:39:40;;;;;;;;;;;;;;;-144.51;100.00;69251.94;5058548;28;20045;-63
2021/09/25 06:42:25;;;;;;;33.67;23.88;;;;;;;-144.51;100.00;69251.94;5055942;28;20380;-63
2021/09/25 06:45:10;;;;;;;32.45;23.48;;;;;;;-144.51;100.00;69251.94;5061178;28;20037;-63
2021/09/25 06:47:56;;;;;;;42.55;24.42;;;;;;;-144.51;100.00;69251.94;5054442;28;20044;-63
2021/09/25 06:50:41;;;;;;;30.77;22.00;;;;;;;-144.51;100.00;69251.94;5057995;28;20041;-64
2021/09/25 06:53:25;;;;;;;39.75;24.55;;;;;;;-144.51;100.00;69251.94;5059200;28;20049;-63
2021/09/25 06:56:11;;;;;;;41.90;25.20;;;;;;;-144.51;100.00;69251.94;5058578;28;20041;-64
2021/09/25 06:58:55;;;;;;;37.47;22.38;;;;;;;-144.51;100.00;69251.94;5053896;28;20052;-64
2021/09/25 07:01:41;;;;;;;33.10;22.15;;;;;;;-144.51;100.00;69251.94;5058864;28;20041;-63
2021/09/25 07:04:26;;;;;;;36.35;22.75;;;;;;;-144.51;100.00;69251.94;5058953;28;20045;-63
2021/09/25 07:07:11;;;;;;;32.95;20.88;;;;;;;-144.51;100.00;69251.94;5063508;28;20041;-64
2021/09/25 07:09:56;;;;;;;30.30;19.65;;;;;;;-144.51;100.00;69251.94;5052134;28;20044;-64
2021/09/25 07:12:42;;;;;;;38.17;19.40;;;;;;;-144.51;100.00;69251.94;5061478;28;20037;-65
2021/09/25 07:15:26;;;;;;;29.02;19.30;;;;;;;-144.51;100.00;69251.94;5060776;28;20488;-65
2021/09/25 07:18:12;;;;;;;31.05;22.73;;;;;;;-144.51;100.00;69251.94;5056661;28;20407;-65
2021/09/25 07:20:57;;;;;;;40.47;23.80;;;;;;;-144.51;100.00;69251.94;5061091;28;20048;-65
2021/09/25 07:23:42;;;;;;;43.80;26.80;;;;;;;-144.51;100.00;69251.94;5064735;28;20032;-65
2021/09/25 07:26:27;;;;;;;37.95;26.60;;;;;;;-144.51;100.00;69251.94;5057857;28;20041;-65
2021/09/25 07:29:13;;;;;;;34.63;23.33;;;;;;;-144.51;100.00;69251.94;5047475;28;20033;-65
2021/09/25 07:31:58;;;;;;;40.25;22.65;;;;;;;-144.51;100.00;69251.94;5052939;28;20065;-65
2021/09/25 07:34:42;;;;;;;44.40;22.25;;;;;;;-144.51;100.00;69251.94;5055575;28;20029;-65
2021/09/25 07:37:28;;;;;;;34.45;21.23;;;;;;;-144.51;100.00;69251.94;5053630;28;20048;-66
2021/09/25 07:40:13;;;;;;;31.98;20.85;;;;;;;-144.51;100.00;69251.94;5058526;28;20040;-65
2021/09/25 07:42:58;;;;;;;31.98;21.40;;;;;;;-144.51;100.00;69251.94;5055161;28;20045;-66
2021/09/25 07:45:44;;;;;;;28.65;20.00;;;;;;;-144.51;100.00;69251.94;5054617;28;20041;-65
2021/09/25 07:48:29;;;;;;;31.55;19.52;;;;;;;-144.51;100.00;69251.94;5053513;28;20040;-66
2021/09/25 07:51:13;;;;;;;35.85;20.63;;;;;;;-144.51;100.00;69251.94;5044919;28;20033;-66
2021/09/25 07:53:59;;;;;;;36.08;20.65;;;;;;;-144.51;100.00;69251.94;5057584;28;20049;-66
2021/09/25 07:56:43;;;;;;;28.45;18.92;;;;;;;-144.51;100.00;69251.94;5060988;28;20040;-66
2021/09/25 07:59:28;;;;;;;30.95;19.52;;;;;;;-144.51;100.00;69251.94;5056062;28;20045;-65
2021/09/25 08:02:14;;;;;;;30.10;18.52;;;;;;;-144.51;100.00;69251.94;5062385;28;20045;-65
2021/09/25 08:04:58;;;;;;;39.78;18.88;;;;;;;-144.51;100.00;69251.94;5056659;28;20049;-66
2021/09/25 08:07:44;;;;;;;28.25;17.85;;;;;;;-144.51;100.00;69251.94;5060730;28;20040;-66
2021/09/25 08:10:28;;;;;;;31.27;17.98;;;;;;;-144.51;100.00;69251.94;5058264;28;20049;-66
2021/09/25 08:13:13;;;;;;;38.67;18.58;;;;;;;-144.51;100.00;69251.94;5057322;28;20033;-63
2021/09/25 08:15:59;;;;;;;29.27;16.52;;;;;;;-144.51;100.00;69251.94;5070565;28;20048;-63
2021/09/25 08:18:44;;;;;;;26.48;16.50;;;;;;;-144.51;100.00;69251.94;5060705;28;20037;-64
2021/09/25 08:21:29;;;;;;;30.73;15.50;;;;;;;-144.51;100.00;69251.94;5042294;28;20045;-64
2021/09/25 08:24:14;;;;;;;27.55;15.68;;;;;;;-144.51;100.00;69251.94;5040302;28;20409;-64
2021/09/25 08:26:58;;;;;;;23.45;15.82;;;;;;;-144.51;100.00;69251.94;5043405;28;20045;-64
2021/09/25 08:29:43;;;;;;;21.00;13.75;;;;;;;-144.51;100.00;69251.94;5070885;28;20036;-64
2021/09/25 08:32:28;;;;;;;35.38;15.35;;;;;;;-144.51;100.00;69251.94;5057351;28;20040;-66
2021/09/25 08:35:13;;;;;;;21.95;12.48;;;;;;;-144.51;100.00;69251.94;5070054;28;20041;-66
2021/09/25 08:37:58;;;;;;;17.67;9.23;;;;;;;-144.51;100.00;69251.94;5064191;28;20044;-67
2021/09/25 08:40:44;;;;;;;12.95;9.80;;;;;;;-144.51;100.00;69251.94;5074281;28;20041;-67
2021/09/25 08:43:28;;;;;;;19.65;9.63;;;;;;;-144.51;100.00;69251.94;5082017;28;20037;-66
2021/09/25 08:46:14;;;;;;;15.57;9.38;;;;;;;-144.51;100.00;69251.94;5036690;28;20037;-66
2021/09/25 08:48:59;;;;;;;16.05;9.88;;;;;;;-144.51;100.00;69251.94;5048472;28;20045;-67
2021/09/25 08:51:45;;;;;;;12.43;9.13;;;;;;;-144.51;100.00;69251.94;5058806;28;20226;-67
2021/09/25 08:54:30;;;;;;;15.55;9.00;;;;;;;-144.51;100.00;69251.94;5057042;28;20049;-66
2021/09/25 08:57:14;;;;;;;17.45;9.20;;;;;;;-144.51;100.00;69251.94;5060687;28;20041;-67
2021/09/25 09:00:32;;;;;;;14.60;8.02;;;;;;;-144.51;100.00;69251.94;5074357;28;20049;-67
2021/09/25 09:03:38;;;;;;;28.95;8.25;;;;;;;-144.51;100.00;69251.94;5040582;28;20440;-67
2021/09/25 09:06:24;;;;;;;17.45;10.43;;;;;;;-144.51;100.00;69251.94;5038382;28;20045;-66
2021/09/25 09:09:10;;;;;;;14.20;9.25;;;;;;;-144.51;100.00;69251.94;5045067;28;20501;-67
2021/09/25 09:11:55;;;;;;;14.23;8.30;;;;;;;-144.51;100.00;69251.94;5054586;28;20047;-67
2021/09/25 09:14:48;;;;;;;21.13;9.73;;;;;;;-144.51;100.00;69251.94;5058221;28;20037;-67
2021/09/25 09:17:32;;;;;;;15.85;7.95;;;;;;;-144.51;100.00;69251.94;5059670;28;20041;-67
2021/09/25 09:20:18;;;;;;;23.05;12.30;;;;;;;-144.51;100.00;69251.94;5060993;28;20260;-67
2021/09/25 09:23:14;;;;;;;16.65;9.88;;;;;;;-144.51;100.00;69251.94;5057906;28;20041;-67
2021/09/25 09:25:59;;;;;;;21.88;10.88;;;;;;;-144.51;100.00;69251.94;5060769;28;20049;-67
2021/09/25 09:28:45;;;;;;;15.23;10.32;;;;;;;-144.51;100.00;69251.94;5038654;28;20045;-67
2021/09/25 09:31:30;;;;;;;14.60;10.05;;;;;;;-144.51;100.00;69251.94;5057382;28;20045;-67
2021/09/25 09:34:16;;;;;;;20.10;10.15;;;;;;;-144.51;100.00;69251.94;5056437;28;20041;-66
2021/09/25 09:37:11;;;;;;;13.15;8.48;;;;;;;-144.51;100.00;69251.94;5060439;28;20049;-66
2021/09/25 09:40:04;;;;;;;14.13;10.23;;;;;;;-144.51;100.00;69251.94;5046945;28;20041;-66
2021/09/25 09:42:49;;;;;;;13.15;8.85;;;;;;;-144.51;100.00;69251.94;5059427;28;20040;-66
2021/09/25 09:45:39;;;;;;;14.88;10.73;;;;;;;-144.51;100.00;69251.94;5058753;28;20048;-66
2021/09/25 09:48:23;;;;;;;14.65;9.05;;;;;;;-144.51;100.00;69251.94;5057115;28;20509;-67
2021/09/25 09:51:08;;;;;;;12.85;9.02;;;;;;;-144.51;100.00;69251.94;5054805;28;20045;-66
2021/09/25 09:53:55;;;;;;;15.68;10.52;;;;;;;-144.51;100.00;69251.94;5060613;28;20037;-67
2021/09/25 09:56:42;;;;;;;15.20;10.55;;;;;;;-144.51;100.00;69251.94;5060070;28;20040;-67
2021/09/25 09:59:28;;;;;;;23.85;11.60;;;;;;;-144.51;100.00;69251.94;5070073;28;20044;-66
2021/09/25 10:02:13;;;;;;;25.27;10.50;;;;;;;-144.51;100.00;69251.94;5080441;28;20044;-67
2021/09/25 10:04:58;;;;;;;20.55;11.95;;;;;;;-144.51;100.00;69251.94;5077814;28;20040;-66
2021/09/25 10:09:53;;;;;;;19.55;10.30;;;;;;;26.23;42.99;101374.19;5130279;27;20120;-69
2021/09/25 10:12:40;;;;;;;23.85;13.38;;;;;;;26.42;42.18;101384.03;5137121;27;20050;-68
2021/09/25 10:15:25;;;;;;;24.58;11.10;;;;;;;24.51;46.10;101379.50;5137251;27;20050;-68
2021/09/25 10:18:10;;;;;;;21.50;12.27;;;;;;;24.95;45.40;101364.47;5134185;27;20046;-68
2021/09/25 10:20:55;;;;;;;20.65;10.82;;;;;;;25.72;44.00;101368.38;5137005;27;20398;-68
2021/09/25 10:23:55;;;;;;;12.50;9.52;;;;;;;24.78;46.13;101363.28;5137181;27;20051;-68
2021/09/25 10:26:45;;;;;;;31.90;10.23;;;;;;;25.32;45.76;101362.09;5136523;27;20046;-67
2021/09/25 10:29:31;;;;;;;20.02;11.18;;;;;;;25.34;45.45;101356.13;5122793;28;20046;-67
2021/09/25 10:32:17;;;;;;;18.88;11.95;;;;;;;24.75;45.52;101361.25;5136951;27;20058;-67
2021/09/25 10:35:10;;;;;;;16.70;11.43;;;;;;;24.90;45.19;101357.31;5136760;27;20070;-68
2021/09/25 10:37:59;;;;;;;19.73;12.85;;;;;;;25.23;45.40;101358.91;5134328;27;20066;-67
2021/09/25 10:40:44;;;;;;;18.95;11.85;;;;;;;25.41;45.24;101364.44;5136768;27;20074;-68
2021/09/25 10:43:30;;;;;;;22.10;13.30;;;;;;;25.46;43.76;101359.25;5136600;27;20047;-68
2021/09/25 10:46:15;;;;;;;20.40;10.77;;;;;;;25.79;43.81;101351.66;5136684;27;20050;-67
2021/09/25 10:49:13;;;;;;;18.35;12.43;;;;;;;27.70;40.58;101355.06;5131071;27;20066;-68
2021/09/25 10:51:58;;;;;;;26.10;15.48;;;;;;;30.45;34.03;101349.56;5136570;27;20093;-67
2021/09/25 10:54:44;;;;;;;19.25;11.70;;;;;;;30.84;32.81;101348.66;5136506;27;20122;-68
2021/09/25 10:57:30;;;;;;;21.50;12.68;;;;;;;33.10;28.53;101363.75;5135238;27;20410;-70
2021/09/25 11:00:22;;;;;;;15.23;11.35;;;;;;;34.38;26.36;101358.31;5136496;27;20046;-68
2021/09/25 11:03:09;;;;;;;12.85;9.77;;;;;;;32.78;28.95;101360.44;5136180;27;20054;-67
2021/09/25 11:06:05;;;;;;;15.43;11.35;;;;;;;35.95;24.44;101360.44;5136045;27;20050;-70
2021/09/25 11:09:04;;;;;;;17.77;10.52;;;;;;;35.83;24.75;101363.44;5130994;27;20407;-69
2021/09/25 11:12:05;;;;;;;14.18;9.95;;;;;;;33.09;28.49;101367.81;5136068;27;20387;-69
2021/09/25 11:14:56;;;;;;;14.82;10.32;;;;;;;33.22;28.66;101362.16;5136003;27;20042;-69
2021/09/25 11:17:40;;;;;;;13.43;9.38;;;;;;;32.75;28.77;101370.59;5134293;27;20054;-70
2021/09/25 11:20:28;;;;;;;18.75;8.85;;;;;;;33.10;27.70;101362.97;5126680;27;20043;-69
2021/09/25 11:23:13;;;;;;;18.38;10.52;;;;;;;33.51;27.78;101353.50;5122134;28;20054;-69
2021/09/25 11:25:58;;;;;;;17.75;10.65;;;;;;;33.69;26.91;101353.66;5122209;28;20043;-70
2021/09/25 11:28:45;;;;;;;14.98;10.88;;;;;;;33.43;27.56;101357.81;5117879;28;20062;-67
2021/09/25 11:31:30;;;;;;;19.50;11.18;;;;;;;32.87;28.96;101360.53;5122278;28;20403;-69
2021/09/25 11:34:23;;;;;;;22.10;11.43;;;;;;;32.46;29.44;101361.47;5122462;28;20042;-68
2021/09/25 11:37:08;;;;;;;19.08;11.27;;;;;;;36.16;24.67;101352.22;5116597;28;20043;-68
2021/09/25 11:39:54;;;;;;;13.77;10.50;;;;;;;35.97;23.98;101357.91;5122153;28;20051;-67
2021/09/25 11:42:39;;;;;;;19.75;9.70;;;;;;;32.30;29.79;101348.28;5122011;28;20058;-68
2021/09/25 11:45:24;;;;;;;19.90;10.30;;;;;;;32.59;29.07;101340.50;5115401;28;20051;-68
2021/09/25 11:48:11;;;;;;;17.50;10.52;;;;;;;31.63;30.16;101344.63;5118877;28;20054;-67
2021/09/25 11:50:57;;;;;;;13.32;9.80;;;;;;;33.78;27.44;101342.41;5122055;28;20054;-68
2021/09/25 11:53:45;;;;;;;18.52;9.68;;;;;;;34.91;25.50;101333.53;5101665;28;20066;-68
2021/09/25 11:56:34;;;;;;;20.17;9.88;;;;;;;34.38;26.18;101338.53;5101596;28;20059;-69
2021/09/25 11:59:25;;;;;;;22.58;10.18;;;;;;;36.33;23.87;101345.69;5095018;28;20043;-69
2021/09/25 12:02:09;;;;;;;17.35;8.40;;;;;;;34.26;26.40;101323.25;5101352;28;20047;-71
2021/09/25 12:04:54;;;;;;;11.43;8.63;;;;;;;34.69;25.62;101325.94;5118543;28;20514;-69
2021/09/25 12:07:46;;;;;;;22.45;10.18;;;;;;;36.18;23.50;101336.31;5119896;28;20054;-70
2021/09/25 12:10:36;;;;;;;14.32;9.38;;;;;;;39.36;19.85;101333.63;5121370;28;20051;-68
2021/09/25 12:13:30;;;;;;;12.93;8.73;;;;;;;36.81;22.85;101329.56;5121440;28;20047;-68
2021/09/25 12:16:20;;;;;;;13.75;8.30;;;;;;;32.40;28.91;101318.19;5121670;28;20054;-70
2021/09/25 12:19:05;;;;;;;15.43;9.15;;;;;;;31.23;31.16;101313.97;5115972;28;20537;-70
2021/09/25 12:21:50;;;;;;;13.30;9.32;;;;;;;30.19;32.58;101319.72;5119045;28;20050;-70
2021/09/25 12:24:35;;;;;;;12.75;9.43;;;;;;;29.64;33.62;101312.84;5117162;28;20506;-70
2021/09/25 12:27:27;;;;;;;26.55;11.35;;;;;;;29.37;34.57;101302.97;5120725;28;20407;-70
2021/09/25 12:30:14;;;;;;;32.42;9.75;;;;;;;29.20;35.20;101304.91;5121488;28;20054;-70
2021/09/25 12:33:02;;;;;;;14.52;9.27;;;;;;;28.73;35.89;101307.72;5115777;28;20046;-69
2021/09/25 12:36:02;;;;;;;16.80;7.85;;;;;;;27.67;38.57;101314.78;5120993;28;20402;-70
2021/09/25 12:38:48;;;;;;;15.98;9.85;;;;;;;27.81;37.21;101306.22;5116161;28;20050;-70
2021/09/25 12:41:34;;;;;;;13.95;6.78;;;;;;;27.65;38.10;101306.00;5120853;28;20517;-70
2021/09/25 12:44:21;;;;;;;8.80;6.35;;;;;;;27.20;39.15;101303.28;5119729;28;20395;-72
2021/09/25 12:47:09;;;;;;;17.55;10.77;;;;;;;27.32;38.50;101302.00;5120772;28;20070;-70